TGD weather

Podgorica Airport
Podgorica, Podgorica Municipality, Montenegro

Public forecast

Using degrees Celsius for public forecast. Weather courtesy of forecast.io.

Current aviation weather report (METAR) for Podgorica Airport

Retrieved 2020/03/31 06:30 UTC (9 minutes ago):

LYPG 310630Z 01012KT 330V060 9999 BKN080 12/M01 Q1014 NOSIG

Aviation forecast (TAF) for Podgorica Airport

Retrieved 2020/03/31 06:00 UTC (39 minutes ago):

TAF LYPG 310500Z 3106/0106 36008KT 9999 FEW040 BKN070 TX14/3113Z TN08/3106Z TEMPO 3106/3108 02018KT TEMPO 3114/3124 5000 RA TEMPO 3116/0106 02015G25KT TEMPO 0100/0106 4000 SNRA